Terminal Aerodrome Forecast
Issued by NWS

Home | Current Version | Previous Version | Text Only | Print | Product List | Glossary On
Versions: 1 2 3 4 5 6 7 8 9 10 11 12 13 14 15
000
FTUS42 KMLB 202300
TAFISM
TAF
KISM 202332Z 2100/2124 31006KT P6SM VCSH SCT025 SCT050 BKN120
      TEMPO 2100/2102 -SHRA BKN035 OVC050
     FM210400 31005KT P6SM SCT015 BKN250
     FM211400 02004KT P6SM SCT035 SCT250
     FM211800 18004KT P6SM SCT030 BKN080 PROB30 2119/2122 3SM SHRA
      BKN030
      AMD NOT SKED 2102/2111=

USA.gov is the U.S. government's official web portal to all federal, state and local government web resources and services.